sensor_id;sensor_type;location;lat;lon;timestamp;P1;durP1;ratioP1;P2;durP2;ratioP2
37805;SDS011;25082;50.870;0.022;2023-12-07T00:02:04;4.60;;;2.10;;
37805;SDS011;25082;50.870;0.022;2023-12-07T00:04:31;5.00;;;2.30;;
37805;SDS011;25082;50.870;0.022;2023-12-07T00:06:58;3.60;;;1.75;;
37805;SDS011;25082;50.870;0.022;2023-12-07T00:09:25;4.32;;;1.92;;
37805;SDS011;25082;50.870;0.022;2023-12-07T00:11:51;3.28;;;2.00;;
37805;SDS011;25082;50.870;0.022;2023-12-07T00:14:17;3.58;;;1.98;;
37805;SDS011;25082;50.870;0.022;2023-12-07T00:16:43;6.72;;;1.67;;
37805;SDS011;25082;50.870;0.022;2023-12-07T00:19:09;4.10;;;2.03;;
37805;SDS011;25082;50.870;0.022;2023-12-07T00:21:35;7.30;;;2.08;;
37805;SDS011;25082;50.870;0.022;2023-12-07T00:24:00;5.43;;;2.33;;
37805;SDS011;25082;50.870;0.022;2023-12-07T00:26:26;6.90;;;2.13;;
37805;SDS011;25082;50.870;0.022;2023-12-07T00:28:52;6.43;;;2.45;;
37805;SDS011;25082;50.870;0.022;2023-12-07T00:31:18;3.55;;;1.77;;
37805;SDS011;25082;50.870;0.022;2023-12-07T00:33:45;6.25;;;3.08;;
37805;SDS011;25082;50.870;0.022;2023-12-07T00:36:11;5.50;;;2.38;;
37805;SDS011;25082;50.870;0.022;2023-12-07T00:38:37;5.65;;;2.50;;
37805;SDS011;25082;50.870;0.022;2023-12-07T00:41:03;6.05;;;2.15;;
37805;SDS011;25082;50.870;0.022;2023-12-07T00:43:29;4.57;;;2.25;;
37805;SDS011;25082;50.870;0.022;2023-12-07T00:45:55;4.13;;;2.22;;
37805;SDS011;25082;50.870;0.022;2023-12-07T00:48:20;3.10;;;1.90;;
37805;SDS011;25082;50.870;0.022;2023-12-07T00:50:46;4.57;;;2.10;;
37805;SDS011;25082;50.870;0.022;2023-12-07T00:53:12;2.63;;;2.10;;
37805;SDS011;25082;50.870;0.022;2023-12-07T00:55:38;2.75;;;1.88;;
37805;SDS011;25082;50.870;0.022;2023-12-07T00:58:05;4.80;;;1.98;;
37805;SDS011;25082;50.870;0.022;2023-12-07T01:00:31;4.63;;;2.20;;
37805;SDS011;25082;50.870;0.022;2023-12-07T01:02:56;3.08;;;1.60;;
37805;SDS011;25082;50.870;0.022;2023-12-07T01:05:22;5.55;;;2.47;;
37805;SDS011;25082;50.870;0.022;2023-12-07T01:07:48;4.60;;;2.13;;
37805;SDS011;25082;50.870;0.022;2023-12-07T01:10:14;3.10;;;1.60;;
37805;SDS011;25082;50.870;0.022;2023-12-07T01:12:39;3.70;;;1.75;;
37805;SDS011;25082;50.870;0.022;2023-12-07T01:15:05;4.20;;;1.83;;
37805;SDS011;25082;50.870;0.022;2023-12-07T01:17:31;7.40;;;2.20;;
37805;SDS011;25082;50.870;0.022;2023-12-07T01:19:57;3.35;;;1.83;;
37805;SDS011;25082;50.870;0.022;2023-12-07T01:22:23;2.70;;;1.80;;
37805;SDS011;25082;50.870;0.022;2023-12-07T01:24:50;3.75;;;1.70;;
37805;SDS011;25082;50.870;0.022;2023-12-07T01:27:16;4.78;;;2.10;;
37805;SDS011;25082;50.870;0.022;2023-12-07T01:29:41;4.07;;;1.77;;
37805;SDS011;25082;50.870;0.022;2023-12-07T01:32:07;3.17;;;1.80;;
37805;SDS011;25082;50.870;0.022;2023-12-07T01:34:33;4.88;;;2.05;;
37805;SDS011;25082;50.870;0.022;2023-12-07T01:36:59;8.70;;;2.05;;
37805;SDS011;25082;50.870;0.022;2023-12-07T01:39:25;3.50;;;1.98;;
37805;SDS011;25082;50.870;0.022;2023-12-07T01:41:52;3.33;;;1.95;;
37805;SDS011;25082;50.870;0.022;2023-12-07T01:44:18;2.95;;;1.58;;
37805;SDS011;25082;50.870;0.022;2023-12-07T01:46:45;6.05;;;2.20;;
37805;SDS011;25082;50.870;0.022;2023-12-07T01:49:11;4.00;;;1.70;;
37805;SDS011;25082;50.870;0.022;2023-12-07T01:51:36;2.78;;;1.50;;
37805;SDS011;25082;50.870;0.022;2023-12-07T01:54:03;4.22;;;1.50;;
37805;SDS011;25082;50.870;0.022;2023-12-07T01:56:29;3.83;;;1.58;;
37805;SDS011;25082;50.870;0.022;2023-12-07T01:58:57;4.60;;;1.40;;
37805;SDS011;25082;50.870;0.022;2023-12-07T02:01:22;3.50;;;1.63;;
37805;SDS011;25082;50.870;0.022;2023-12-07T02:03:48;3.45;;;1.77;;
37805;SDS011;25082;50.870;0.022;2023-12-07T02:06:14;3.53;;;1.58;;
37805;SDS011;25082;50.870;0.022;2023-12-07T02:08:41;2.55;;;1.48;;
37805;SDS011;25082;50.870;0.022;2023-12-07T02:11:09;5.32;;;2.00;;
37805;SDS011;25082;50.870;0.022;2023-12-07T02:13:38;3.83;;;1.65;;
37805;SDS011;25082;50.870;0.022;2023-12-07T02:16:07;3.88;;;1.70;;
37805;SDS011;25082;50.870;0.022;2023-12-07T02:18:41;5.25;;;1.90;;
37805;SDS011;25082;50.870;0.022;2023-12-07T02:21:25;3.15;;;1.92;;
37805;SDS011;25082;50.870;0.022;2023-12-07T02:23:59;3.20;;;1.77;;
37805;SDS011;25082;50.870;0.022;2023-12-07T02:26:37;5.78;;;2.13;;
37805;SDS011;25082;50.870;0.022;2023-12-07T02:29:04;3.90;;;1.60;;
37805;SDS011;25082;50.870;0.022;2023-12-07T02:31:30;3.45;;;1.83;;
37805;SDS011;25082;50.870;0.022;2023-12-07T02:33:56;2.28;;;1.50;;
37805;SDS011;25082;50.870;0.022;2023-12-07T02:36:24;4.50;;;1.50;;
37805;SDS011;25082;50.870;0.022;2023-12-07T02:38:53;3.42;;;1.52;;
37805;SDS011;25082;50.870;0.022;2023-12-07T02:41:23;2.33;;;1.20;;
37805;SDS011;25082;50.870;0.022;2023-12-07T02:43:51;4.93;;;1.98;;
37805;SDS011;25082;50.870;0.022;2023-12-07T02:46:17;2.75;;;1.80;;
37805;SDS011;25082;50.870;0.022;2023-12-07T02:48:43;3.33;;;1.98;;
37805;SDS011;25082;50.870;0.022;2023-12-07T02:51:09;6.80;;;2.28;;
37805;SDS011;25082;50.870;0.022;2023-12-07T02:53:35;3.58;;;1.63;;
37805;SDS011;25082;50.870;0.022;2023-12-07T02:56:01;3.75;;;1.75;;
37805;SDS011;25082;50.870;0.022;2023-12-07T02:58:28;4.70;;;1.70;;
37805;SDS011;25082;50.870;0.022;2023-12-07T03:00:54;4.15;;;1.90;;
37805;SDS011;25082;50.870;0.022;2023-12-07T03:03:20;1.92;;;1.30;;
37805;SDS011;25082;50.870;0.022;2023-12-07T03:05:46;5.60;;;1.65;;
37805;SDS011;25082;50.870;0.022;2023-12-07T03:08:12;2.40;;;1.52;;
37805;SDS011;25082;50.870;0.022;2023-12-07T03:10:38;2.33;;;1.30;;
37805;SDS011;25082;50.870;0.022;2023-12-07T03:13:04;3.38;;;1.73;;
37805;SDS011;25082;50.870;0.022;2023-12-07T03:15:30;2.92;;;1.50;;
37805;SDS011;25082;50.870;0.022;2023-12-07T03:17:57;2.45;;;1.63;;
37805;SDS011;25082;50.870;0.022;2023-12-07T03:20:23;2.25;;;1.33;;
37805;SDS011;25082;50.870;0.022;2023-12-07T03:22:49;2.65;;;1.80;;
37805;SDS011;25082;50.870;0.022;2023-12-07T03:25:15;3.33;;;1.60;;
37805;SDS011;25082;50.870;0.022;2023-12-07T03:27:41;3.30;;;1.73;;
37805;SDS011;25082;50.870;0.022;2023-12-07T03:30:08;2.90;;;1.23;;
37805;SDS011;25082;50.870;0.022;2023-12-07T03:32:34;3.40;;;1.83;;
37805;SDS011;25082;50.870;0.022;2023-12-07T03:35:00;2.53;;;1.45;;
37805;SDS011;25082;50.870;0.022;2023-12-07T03:37:26;2.50;;;1.70;;
37805;SDS011;25082;50.870;0.022;2023-12-07T03:39:52;3.97;;;2.10;;
37805;SDS011;25082;50.870;0.022;2023-12-07T03:42:18;2.88;;;1.85;;
37805;SDS011;25082;50.870;0.022;2023-12-07T03:44:43;4.97;;;2.10;;
37805;SDS011;25082;50.870;0.022;2023-12-07T03:47:09;2.47;;;1.42;;
37805;SDS011;25082;50.870;0.022;2023-12-07T03:49:35;2.50;;;1.52;;
37805;SDS011;25082;50.870;0.022;2023-12-07T03:52:01;3.97;;;1.42;;
37805;SDS011;25082;50.870;0.022;2023-12-07T03:54:27;3.00;;;1.67;;
37805;SDS011;25082;50.870;0.022;2023-12-07T03:56:53;4.95;;;1.83;;
37805;SDS011;25082;50.870;0.022;2023-12-07T03:59:18;2.75;;;1.55;;
37805;SDS011;25082;50.870;0.022;2023-12-07T04:01:44;4.53;;;1.77;;
37805;SDS011;25082;50.870;0.022;2023-12-07T04:04:10;4.22;;;2.28;;
37805;SDS011;25082;50.870;0.022;2023-12-07T04:06:35;2.88;;;1.73;;
37805;SDS011;25082;50.870;0.022;2023-12-07T04:09:01;3.97;;;1.95;;
37805;SDS011;25082;50.870;0.022;2023-12-07T04:11:29;2.80;;;1.73;;
37805;SDS011;25082;50.870;0.022;2023-12-07T04:13:55;3.15;;;2.00;;
37805;SDS011;25082;50.870;0.022;2023-12-07T04:16:20;4.20;;;1.67;;
37805;SDS011;25082;50.870;0.022;2023-12-07T04:18:46;3.67;;;1.98;;
37805;SDS011;25082;50.870;0.022;2023-12-07T04:21:12;4.25;;;1.85;;
37805;SDS011;25082;50.870;0.022;2023-12-07T04:23:37;5.63;;;1.90;;
37805;SDS011;25082;50.870;0.022;2023-12-07T04:26:03;4.07;;;1.70;;
37805;SDS011;25082;50.870;0.022;2023-12-07T04:28:30;6.00;;;1.92;;
37805;SDS011;25082;50.870;0.022;2023-12-07T04:30:57;4.05;;;2.20;;
37805;SDS011;25082;50.870;0.022;2023-12-07T04:33:23;6.35;;;2.08;;
37805;SDS011;25082;50.870;0.022;2023-12-07T04:35:49;5.50;;;2.15;;
37805;SDS011;25082;50.870;0.022;2023-12-07T04:38:15;3.67;;;2.00;;
37805;SDS011;25082;50.870;0.022;2023-12-07T04:40:41;3.92;;;2.15;;
37805;SDS011;25082;50.870;0.022;2023-12-07T04:43:07;6.03;;;2.80;;
37805;SDS011;25082;50.870;0.022;2023-12-07T04:45:33;4.40;;;2.22;;
37805;SDS011;25082;50.870;0.022;2023-12-07T04:47:59;5.05;;;2.28;;
37805;SDS011;25082;50.870;0.022;2023-12-07T04:50:26;3.85;;;2.72;;
37805;SDS011;25082;50.870;0.022;2023-12-07T04:52:52;3.90;;;1.98;;
37805;SDS011;25082;50.870;0.022;2023-12-07T04:55:19;3.28;;;2.13;;
37805;SDS011;25082;50.870;0.022;2023-12-07T04:57:46;5.22;;;2.25;;
37805;SDS011;25082;50.870;0.022;2023-12-07T05:00:12;4.88;;;2.10;;
37805;SDS011;25082;50.870;0.022;2023-12-07T05:02:39;4.78;;;1.90;;
37805;SDS011;25082;50.870;0.022;2023-12-07T05:05:05;5.28;;;1.92;;
37805;SDS011;25082;50.870;0.022;2023-12-07T05:07:31;4.78;;;2.10;;
37805;SDS011;25082;50.870;0.022;2023-12-07T05:09:57;5.30;;;1.95;;
37805;SDS011;25082;50.870;0.022;2023-12-07T05:12:23;3.85;;;2.20;;
37805;SDS011;25082;50.870;0.022;2023-12-07T05:14:50;4.50;;;2.30;;
37805;SDS011;25082;50.870;0.022;2023-12-07T05:17:16;3.53;;;1.85;;
37805;SDS011;25082;50.870;0.022;2023-12-07T05:19:43;4.03;;;2.60;;
37805;SDS011;25082;50.870;0.022;2023-12-07T05:22:10;4.93;;;2.40;;
37805;SDS011;25082;50.870;0.022;2023-12-07T05:24:37;2.90;;;2.10;;
37805;SDS011;25082;50.870;0.022;2023-12-07T05:27:03;3.80;;;1.85;;
37805;SDS011;25082;50.870;0.022;2023-12-07T05:29:29;2.78;;;1.90;;
37805;SDS011;25082;50.870;0.022;2023-12-07T05:31:55;5.15;;;2.78;;
37805;SDS011;25082;50.870;0.022;2023-12-07T05:34:21;4.32;;;2.15;;
37805;SDS011;25082;50.870;0.022;2023-12-07T05:36:46;4.30;;;2.40;;
37805;SDS011;25082;50.870;0.022;2023-12-07T05:39:12;6.40;;;2.17;;
37805;SDS011;25082;50.870;0.022;2023-12-07T05:41:38;6.15;;;2.60;;
37805;SDS011;25082;50.870;0.022;2023-12-07T05:44:04;6.03;;;2.50;;
37805;SDS011;25082;50.870;0.022;2023-12-07T05:46:30;4.72;;;2.60;;
37805;SDS011;25082;50.870;0.022;2023-12-07T05:48:57;5.45;;;2.63;;
37805;SDS011;25082;50.870;0.022;2023-12-07T05:51:23;5.82;;;2.63;;
37805;SDS011;25082;50.870;0.022;2023-12-07T05:53:49;5.03;;;2.50;;
37805;SDS011;25082;50.870;0.022;2023-12-07T05:56:19;4.47;;;2.08;;
37805;SDS011;25082;50.870;0.022;2023-12-07T05:58:46;4.15;;;1.95;;
37805;SDS011;25082;50.870;0.022;2023-12-07T06:01:16;4.03;;;2.05;;
37805;SDS011;25082;50.870;0.022;2023-12-07T06:03:43;4.47;;;2.15;;
37805;SDS011;25082;50.870;0.022;2023-12-07T06:06:10;5.75;;;2.55;;
37805;SDS011;25082;50.870;0.022;2023-12-07T06:08:39;3.85;;;2.40;;
37805;SDS011;25082;50.870;0.022;2023-12-07T06:11:06;4.03;;;2.20;;
37805;SDS011;25082;50.870;0.022;2023-12-07T06:13:33;4.13;;;2.13;;
37805;SDS011;25082;50.870;0.022;2023-12-07T06:15:59;4.60;;;2.03;;
37805;SDS011;25082;50.870;0.022;2023-12-07T06:18:28;5.43;;;2.35;;
37805;SDS011;25082;50.870;0.022;2023-12-07T06:20:55;3.85;;;2.15;;
37805;SDS011;25082;50.870;0.022;2023-12-07T06:23:20;7.40;;;2.50;;
37805;SDS011;25082;50.870;0.022;2023-12-07T06:25:47;4.43;;;2.28;;
37805;SDS011;25082;50.870;0.022;2023-12-07T06:28:13;4.13;;;2.50;;
37805;SDS011;25082;50.870;0.022;2023-12-07T06:30:39;3.60;;;2.22;;
37805;SDS011;25082;50.870;0.022;2023-12-07T06:33:05;3.50;;;2.38;;
37805;SDS011;25082;50.870;0.022;2023-12-07T06:35:31;4.95;;;2.47;;
37805;SDS011;25082;50.870;0.022;2023-12-07T06:37:57;4.70;;;2.10;;
37805;SDS011;25082;50.870;0.022;2023-12-07T06:40:23;4.03;;;2.50;;
37805;SDS011;25082;50.870;0.022;2023-12-07T06:42:49;5.47;;;2.85;;
37805;SDS011;25082;50.870;0.022;2023-12-07T06:45:16;6.05;;;2.50;;
37805;SDS011;25082;50.870;0.022;2023-12-07T06:47:42;5.50;;;2.70;;
37805;SDS011;25082;50.870;0.022;2023-12-07T06:50:08;5.07;;;2.28;;
37805;SDS011;25082;50.870;0.022;2023-12-07T06:52:35;4.80;;;1.95;;
37805;SDS011;25082;50.870;0.022;2023-12-07T06:55:05;5.07;;;2.35;;
37805;SDS011;25082;50.870;0.022;2023-12-07T06:57:35;5.32;;;2.65;;
37805;SDS011;25082;50.870;0.022;2023-12-07T07:00:01;7.10;;;2.53;;
37805;SDS011;25082;50.870;0.022;2023-12-07T07:02:30;4.72;;;2.22;;
37805;SDS011;25082;50.870;0.022;2023-12-07T07:04:56;5.28;;;2.17;;
37805;SDS011;25082;50.870;0.022;2023-12-07T07:07:22;6.20;;;2.60;;
37805;SDS011;25082;50.870;0.022;2023-12-07T07:09:48;4.82;;;2.63;;
37805;SDS011;25082;50.870;0.022;2023-12-07T07:12:14;5.68;;;2.50;;
37805;SDS011;25082;50.870;0.022;2023-12-07T07:14:39;6.55;;;2.08;;
37805;SDS011;25082;50.870;0.022;2023-12-07T07:17:05;5.53;;;2.65;;
37805;SDS011;25082;50.870;0.022;2023-12-07T07:19:31;4.72;;;2.22;;
37805;SDS011;25082;50.870;0.022;2023-12-07T07:21:57;4.20;;;2.33;;
37805;SDS011;25082;50.870;0.022;2023-12-07T07:24:22;6.80;;;2.60;;
37805;SDS011;25082;50.870;0.022;2023-12-07T07:26:48;2.85;;;1.98;;
37805;SDS011;25082;50.870;0.022;2023-12-07T07:29:14;6.32;;;2.38;;
37805;SDS011;25082;50.870;0.022;2023-12-07T07:31:40;4.68;;;2.30;;
37805;SDS011;25082;50.870;0.022;2023-12-07T07:34:05;5.18;;;2.10;;
37805;SDS011;25082;50.870;0.022;2023-12-07T07:36:31;4.90;;;2.38;;
37805;SDS011;25082;50.870;0.022;2023-12-07T07:38:57;4.28;;;2.00;;
37805;SDS011;25082;50.870;0.022;2023-12-07T07:41:23;3.25;;;2.00;;
37805;SDS011;25082;50.870;0.022;2023-12-07T07:43:49;3.85;;;1.73;;
37805;SDS011;25082;50.870;0.022;2023-12-07T07:46:15;3.88;;;1.92;;
37805;SDS011;25082;50.870;0.022;2023-12-07T07:48:41;4.63;;;2.33;;
37805;SDS011;25082;50.870;0.022;2023-12-07T07:51:07;4.35;;;2.67;;
37805;SDS011;25082;50.870;0.022;2023-12-07T07:53:33;4.93;;;2.55;;
37805;SDS011;25082;50.870;0.022;2023-12-07T07:55:59;4.13;;;2.40;;
37805;SDS011;25082;50.870;0.022;2023-12-07T07:58:25;4.28;;;1.83;;
37805;SDS011;25082;50.870;0.022;2023-12-07T08:00:51;3.05;;;1.88;;
37805;SDS011;25082;50.870;0.022;2023-12-07T08:03:17;4.63;;;1.80;;
37805;SDS011;25082;50.870;0.022;2023-12-07T08:05:43;3.88;;;1.92;;
37805;SDS011;25082;50.870;0.022;2023-12-07T08:08:10;3.50;;;2.05;;
37805;SDS011;25082;50.870;0.022;2023-12-07T08:10:36;3.55;;;1.70;;
37805;SDS011;25082;50.870;0.022;2023-12-07T08:13:04;6.28;;;2.42;;
37805;SDS011;25082;50.870;0.022;2023-12-07T08:15:33;3.53;;;1.83;;
37805;SDS011;25082;50.870;0.022;2023-12-07T08:18:00;2.90;;;1.73;;
37805;SDS011;25082;50.870;0.022;2023-12-07T08:20:27;3.17;;;1.77;;
37805;SDS011;25082;50.870;0.022;2023-12-07T08:22:54;5.35;;;1.98;;
37805;SDS011;25082;50.870;0.022;2023-12-07T08:25:20;3.95;;;1.65;;
37805;SDS011;25082;50.870;0.022;2023-12-07T08:27:47;3.92;;;2.03;;
37805;SDS011;25082;50.870;0.022;2023-12-07T08:30:14;5.80;;;1.80;;
37805;SDS011;25082;50.870;0.022;2023-12-07T08:32:40;4.78;;;1.73;;
37805;SDS011;25082;50.870;0.022;2023-12-07T08:35:07;6.82;;;2.20;;
37805;SDS011;25082;50.870;0.022;2023-12-07T08:37:33;4.18;;;1.70;;
37805;SDS011;25082;50.870;0.022;2023-12-07T08:40:02;4.40;;;1.83;;
37805;SDS011;25082;50.870;0.022;2023-12-07T08:42:29;3.83;;;1.90;;
37805;SDS011;25082;50.870;0.022;2023-12-07T08:44:57;4.93;;;2.05;;
37805;SDS011;25082;50.870;0.022;2023-12-07T08:47:23;3.78;;;1.45;;
37805;SDS011;25082;50.870;0.022;2023-12-07T08:49:53;5.45;;;2.85;;
37805;SDS011;25082;50.870;0.022;2023-12-07T08:52:19;2.63;;;1.48;;
37805;SDS011;25082;50.870;0.022;2023-12-07T08:54:46;3.80;;;1.88;;
37805;SDS011;25082;50.870;0.022;2023-12-07T08:57:13;4.03;;;1.50;;
37805;SDS011;25082;50.870;0.022;2023-12-07T08:59:40;3.88;;;1.70;;
37805;SDS011;25082;50.870;0.022;2023-12-07T09:02:06;4.65;;;2.20;;
37805;SDS011;25082;50.870;0.022;2023-12-07T09:04:31;3.13;;;1.30;;
37805;SDS011;25082;50.870;0.022;2023-12-07T09:06:57;6.65;;;1.95;;
37805;SDS011;25082;50.870;0.022;2023-12-07T09:09:23;4.38;;;1.83;;
37805;SDS011;25082;50.870;0.022;2023-12-07T09:11:50;2.95;;;1.45;;
37805;SDS011;25082;50.870;0.022;2023-12-07T09:14:16;2.85;;;1.73;;
37805;SDS011;25082;50.870;0.022;2023-12-07T09:16:42;4.53;;;1.83;;
37805;SDS011;25082;50.870;0.022;2023-12-07T09:19:10;3.17;;;1.63;;
37805;SDS011;25082;50.870;0.022;2023-12-07T09:21:37;3.88;;;1.95;;
37805;SDS011;25082;50.870;0.022;2023-12-07T09:24:03;7.78;;;1.70;;
37805;SDS011;25082;50.870;0.022;2023-12-07T09:26:30;2.95;;;1.80;;
37805;SDS011;25082;50.870;0.022;2023-12-07T09:28:56;4.72;;;1.85;;
37805;SDS011;25082;50.870;0.022;2023-12-07T09:31:22;4.82;;;1.70;;
37805;SDS011;25082;50.870;0.022;2023-12-07T09:33:48;3.78;;;1.80;;
37805;SDS011;25082;50.870;0.022;2023-12-07T09:36:17;4.28;;;1.70;;
37805;SDS011;25082;50.870;0.022;2023-12-07T09:38:43;4.38;;;1.73;;
37805;SDS011;25082;50.870;0.022;2023-12-07T09:41:10;4.07;;;1.88;;
37805;SDS011;25082;50.870;0.022;2023-12-07T09:43:37;3.80;;;1.98;;
37805;SDS011;25082;50.870;0.022;2023-12-07T09:46:03;4.50;;;2.10;;
37805;SDS011;25082;50.870;0.022;2023-12-07T09:48:31;6.35;;;1.90;;
37805;SDS011;25082;50.870;0.022;2023-12-07T09:50:59;6.93;;;2.03;;
37805;SDS011;25082;50.870;0.022;2023-12-07T09:53:32;6.90;;;2.17;;
37805;SDS011;25082;50.870;0.022;2023-12-07T09:56:00;6.80;;;2.03;;
37805;SDS011;25082;50.870;0.022;2023-12-07T09:58:27;4.40;;;1.50;;
37805;SDS011;25082;50.870;0.022;2023-12-07T10:00:53;6.72;;;1.90;;
37805;SDS011;25082;50.870;0.022;2023-12-07T10:03:21;5.35;;;2.03;;
37805;SDS011;25082;50.870;0.022;2023-12-07T10:05:54;6.28;;;1.83;;
37805;SDS011;25082;50.870;0.022;2023-12-07T10:08:26;5.18;;;1.98;;
37805;SDS011;25082;50.870;0.022;2023-12-07T10:11:08;7.55;;;1.70;;
37805;SDS011;25082;50.870;0.022;2023-12-07T10:13:37;5.60;;;1.73;;
37805;SDS011;25082;50.870;0.022;2023-12-07T10:16:13;5.40;;;1.90;;
37805;SDS011;25082;50.870;0.022;2023-12-07T10:18:41;7.10;;;2.13;;
37805;SDS011;25082;50.870;0.022;2023-12-07T10:21:08;9.40;;;1.70;;
37805;SDS011;25082;50.870;0.022;2023-12-07T10:23:38;6.20;;;1.92;;
37805;SDS011;25082;50.870;0.022;2023-12-07T10:26:08;5.05;;;1.92;;
37805;SDS011;25082;50.870;0.022;2023-12-07T10:28:36;5.00;;;1.88;;
37805;SDS011;25082;50.870;0.022;2023-12-07T10:31:08;4.88;;;1.80;;
37805;SDS011;25082;50.870;0.022;2023-12-07T10:33:35;3.60;;;1.65;;
37805;SDS011;25082;50.870;0.022;2023-12-07T10:36:02;4.20;;;1.65;;
37805;SDS011;25082;50.870;0.022;2023-12-07T10:38:29;7.90;;;1.50;;
37805;SDS011;25082;50.870;0.022;2023-12-07T10:41:15;6.55;;;2.03;;
37805;SDS011;25082;50.870;0.022;2023-12-07T10:43:43;6.18;;;1.55;;
37805;SDS011;25082;50.870;0.022;2023-12-07T10:46:09;3.20;;;1.50;;
37805;SDS011;25082;50.870;0.022;2023-12-07T10:48:41;4.15;;;2.05;;
37805;SDS011;25082;50.870;0.022;2023-12-07T10:51:10;4.13;;;2.10;;
37805;SDS011;25082;50.870;0.022;2023-12-07T10:53:59;3.97;;;1.50;;
37805;SDS011;25082;50.870;0.022;2023-12-07T10:56:29;6.80;;;1.98;;
37805;SDS011;25082;50.870;0.022;2023-12-07T10:59:02;4.18;;;1.60;;
37805;SDS011;25082;50.870;0.022;2023-12-07T11:01:27;4.65;;;1.38;;
37805;SDS011;25082;50.870;0.022;2023-12-07T11:03:54;2.88;;;1.20;;
37805;SDS011;25082;50.870;0.022;2023-12-07T11:06:22;5.18;;;1.50;;
37805;SDS011;25082;50.870;0.022;2023-12-07T11:08:54;5.03;;;1.75;;
37805;SDS011;25082;50.870;0.022;2023-12-07T11:14:05;5.57;;;1.60;;
37805;SDS011;25082;50.870;0.022;2023-12-07T11:16:37;4.07;;;1.75;;
37805;SDS011;25082;50.870;0.022;2023-12-07T11:19:06;5.85;;;1.55;;
37805;SDS011;25082;50.870;0.022;2023-12-07T11:22:00;2.90;;;1.40;;
37805;SDS011;25082;50.870;0.022;2023-12-07T11:24:27;5.25;;;1.90;;
37805;SDS011;25082;50.870;0.022;2023-12-07T11:26:56;4.55;;;1.77;;
37805;SDS011;25082;50.870;0.022;2023-12-07T11:29:25;3.05;;;1.48;;
37805;SDS011;25082;50.870;0.022;2023-12-07T11:31:55;2.23;;;1.07;;
37805;SDS011;25082;50.870;0.022;2023-12-07T11:34:41;6.90;;;1.67;;
37805;SDS011;25082;50.870;0.022;2023-12-07T11:37:08;4.32;;;1.65;;
37805;SDS011;25082;50.870;0.022;2023-12-07T11:39:35;2.40;;;1.23;;
37805;SDS011;25082;50.870;0.022;2023-12-07T11:42:12;3.35;;;1.55;;
37805;SDS011;25082;50.870;0.022;2023-12-07T11:44:43;4.55;;;1.42;;
37805;SDS011;25082;50.870;0.022;2023-12-07T11:47:17;3.63;;;1.20;;
37805;SDS011;25082;50.870;0.022;2023-12-07T11:49:44;6.20;;;2.10;;
37805;SDS011;25082;50.870;0.022;2023-12-07T11:52:19;2.78;;;1.30;;
37805;SDS011;25082;50.870;0.022;2023-12-07T11:54:46;4.03;;;1.50;;
37805;SDS011;25082;50.870;0.022;2023-12-07T11:57:16;2.97;;;1.23;;
37805;SDS011;25082;50.870;0.022;2023-12-07T11:59:45;2.88;;;1.40;;
37805;SDS011;25082;50.870;0.022;2023-12-07T12:02:13;3.90;;;1.88;;
37805;SDS011;25082;50.870;0.022;2023-12-07T12:04:42;4.30;;;1.67;;
37805;SDS011;25082;50.870;0.022;2023-12-07T12:07:08;3.53;;;1.55;;
37805;SDS011;25082;50.870;0.022;2023-12-07T12:09:34;4.45;;;1.30;;
37805;SDS011;25082;50.870;0.022;2023-12-07T12:12:00;1.90;;;1.10;;
37805;SDS011;25082;50.870;0.022;2023-12-07T12:14:27;3.70;;;1.50;;
37805;SDS011;25082;50.870;0.022;2023-12-07T12:16:56;2.85;;;1.15;;
37805;SDS011;25082;50.870;0.022;2023-12-07T12:19:22;2.65;;;1.30;;
37805;SDS011;25082;50.870;0.022;2023-12-07T12:21:48;2.67;;;1.30;;
37805;SDS011;25082;50.870;0.022;2023-12-07T12:24:14;4.03;;;1.30;;
37805;SDS011;25082;50.870;0.022;2023-12-07T12:26:40;4.43;;;1.75;;
37805;SDS011;25082;50.870;0.022;2023-12-07T12:29:08;3.42;;;1.63;;
37805;SDS011;25082;50.870;0.022;2023-12-07T12:31:37;4.63;;;1.65;;
37805;SDS011;25082;50.870;0.022;2023-12-07T12:34:06;2.65;;;1.13;;
37805;SDS011;25082;50.870;0.022;2023-12-07T12:36:37;4.22;;;1.55;;
37805;SDS011;25082;50.870;0.022;2023-12-07T12:39:03;3.03;;;1.27;;
37805;SDS011;25082;50.870;0.022;2023-12-07T12:41:33;2.95;;;1.35;;
37805;SDS011;25082;50.870;0.022;2023-12-07T12:43:59;2.30;;;1.30;;
37805;SDS011;25082;50.870;0.022;2023-12-07T12:46:25;3.55;;;1.20;;
37805;SDS011;25082;50.870;0.022;2023-12-07T12:51:20;3.95;;;1.77;;
37805;SDS011;25082;50.870;0.022;2023-12-07T12:53:48;3.05;;;1.20;;
37805;SDS011;25082;50.870;0.022;2023-12-07T12:56:15;3.55;;;1.55;;
37805;SDS011;25082;50.870;0.022;2023-12-07T12:58:41;2.50;;;1.13;;
37805;SDS011;25082;50.870;0.022;2023-12-07T13:01:07;4.07;;;1.75;;
37805;SDS011;25082;50.870;0.022;2023-12-07T13:03:33;3.70;;;1.45;;
37805;SDS011;25082;50.870;0.022;2023-12-07T13:05:59;4.55;;;1.42;;
37805;SDS011;25082;50.870;0.022;2023-12-07T13:08:25;6.43;;;1.70;;
37805;SDS011;25082;50.870;0.022;2023-12-07T13:10:51;2.53;;;1.30;;
37805;SDS011;25082;50.870;0.022;2023-12-07T13:13:17;6.35;;;1.45;;
37805;SDS011;25082;50.870;0.022;2023-12-07T13:15:42;5.75;;;1.33;;
37805;SDS011;25082;50.870;0.022;2023-12-07T13:18:08;4.75;;;1.58;;
37805;SDS011;25082;50.870;0.022;2023-12-07T13:20:34;5.00;;;1.42;;
37805;SDS011;25082;50.870;0.022;2023-12-07T13:23:03;3.25;;;1.10;;
37805;SDS011;25082;50.870;0.022;2023-12-07T13:25:29;3.35;;;1.38;;
37805;SDS011;25082;50.870;0.022;2023-12-07T13:27:55;3.28;;;1.63;;
37805;SDS011;25082;50.870;0.022;2023-12-07T13:30:21;1.83;;;1.20;;
37805;SDS011;25082;50.870;0.022;2023-12-07T13:32:47;3.85;;;1.10;;
37805;SDS011;25082;50.870;0.022;2023-12-07T13:35:13;4.72;;;1.38;;
37805;SDS011;25082;50.870;0.022;2023-12-07T13:37:39;3.15;;;1.30;;
37805;SDS011;25082;50.870;0.022;2023-12-07T13:40:04;3.25;;;1.20;;
37805;SDS011;25082;50.870;0.022;2023-12-07T13:42:35;2.10;;;0.93;;
37805;SDS011;25082;50.870;0.022;2023-12-07T13:45:01;3.15;;;1.33;;
37805;SDS011;25082;50.870;0.022;2023-12-07T13:47:27;3.53;;;1.30;;
37805;SDS011;25082;50.870;0.022;2023-12-07T13:49:59;1.75;;;0.93;;
37805;SDS011;25082;50.870;0.022;2023-12-07T13:52:26;3.00;;;1.42;;
37805;SDS011;25082;50.870;0.022;2023-12-07T13:54:53;2.83;;;1.50;;
37805;SDS011;25082;50.870;0.022;2023-12-07T13:57:19;2.30;;;1.35;;
37805;SDS011;25082;50.870;0.022;2023-12-07T13:59:47;2.63;;;1.10;;
37805;SDS011;25082;50.870;0.022;2023-12-07T14:02:13;1.50;;;1.10;;
37805;SDS011;25082;50.870;0.022;2023-12-07T14:04:40;2.28;;;1.08;;
37805;SDS011;25082;50.870;0.022;2023-12-07T14:07:09;4.35;;;1.50;;
37805;SDS011;25082;50.870;0.022;2023-12-07T14:09:40;4.72;;;1.67;;
37805;SDS011;25082;50.870;0.022;2023-12-07T14:12:07;2.55;;;1.13;;
37805;SDS011;25082;50.870;0.022;2023-12-07T14:14:36;2.97;;;1.35;;
37805;SDS011;25082;50.870;0.022;2023-12-07T14:17:01;3.22;;;1.65;;
37805;SDS011;25082;50.870;0.022;2023-12-07T14:19:28;2.83;;;1.10;;
37805;SDS011;25082;50.870;0.022;2023-12-07T14:21:54;2.83;;;1.08;;
37805;SDS011;25082;50.870;0.022;2023-12-07T14:24:21;3.92;;;1.33;;
37805;SDS011;25082;50.870;0.022;2023-12-07T14:26:48;2.40;;;1.58;;
37805;SDS011;25082;50.870;0.022;2023-12-07T14:29:14;2.53;;;1.35;;
37805;SDS011;25082;50.870;0.022;2023-12-07T14:31:43;2.72;;;1.48;;
37805;SDS011;25082;50.870;0.022;2023-12-07T14:34:09;3.33;;;1.45;;
37805;SDS011;25082;50.870;0.022;2023-12-07T14:36:35;3.47;;;1.63;;
37805;SDS011;25082;50.870;0.022;2023-12-07T14:39:03;3.55;;;1.63;;
37805;SDS011;25082;50.870;0.022;2023-12-07T14:41:32;2.78;;;1.50;;
37805;SDS011;25082;50.870;0.022;2023-12-07T14:43:58;2.60;;;1.38;;
37805;SDS011;25082;50.870;0.022;2023-12-07T14:46:24;2.70;;;1.38;;
37805;SDS011;25082;50.870;0.022;2023-12-07T14:48:50;3.78;;;1.70;;
37805;SDS011;25082;50.870;0.022;2023-12-07T14:51:19;3.90;;;1.60;;
37805;SDS011;25082;50.870;0.022;2023-12-07T14:53:46;2.28;;;1.40;;